sensor_id;sensor_type;location;lat;lon;timestamp;P1;durP1;ratioP1;P2;durP2;ratioP2
53875;SDS011;39789;53.216;5.624;2023-02-18T00:01:29;16.88;;;4.28;;
53875;SDS011;39789;53.216;5.624;2023-02-18T00:03:56;18.58;;;4.80;;
53875;SDS011;39789;53.216;5.624;2023-02-18T00:06:26;17.90;;;4.45;;
53875;SDS011;39789;53.216;5.624;2023-02-18T00:09:09;14.05;;;4.53;;
53875;SDS011;39789;53.216;5.624;2023-02-18T00:11:57;15.25;;;4.25;;
53875;SDS011;39789;53.216;5.624;2023-02-18T00:15:19;13.75;;;3.90;;
53875;SDS011;39789;53.216;5.624;2023-02-18T00:17:51;12.30;;;4.05;;
53875;SDS011;39789;53.216;5.624;2023-02-18T00:20:22;16.10;;;4.45;;
53875;SDS011;39789;53.216;5.624;2023-02-18T00:22:48;16.95;;;4.72;;
53875;SDS011;39789;53.216;5.624;2023-02-18T00:25:15;14.55;;;3.80;;
53875;SDS011;39789;53.216;5.624;2023-02-18T00:27:48;15.95;;;3.58;;
53875;SDS011;39789;53.216;5.624;2023-02-18T00:30:22;12.30;;;3.85;;
53875;SDS011;39789;53.216;5.624;2023-02-18T00:32:49;17.42;;;4.03;;
53875;SDS011;39789;53.216;5.624;2023-02-18T00:35:20;17.35;;;3.92;;
53875;SDS011;39789;53.216;5.624;2023-02-18T00:37:49;22.63;;;4.90;;
53875;SDS011;39789;53.216;5.624;2023-02-18T00:40:17;19.08;;;4.05;;
53875;SDS011;39789;53.216;5.624;2023-02-18T00:43:42;18.63;;;4.95;;
53875;SDS011;39789;53.216;5.624;2023-02-18T00:46:33;16.42;;;4.38;;
53875;SDS011;39789;53.216;5.624;2023-02-18T00:49:11;16.67;;;3.97;;
53875;SDS011;39789;53.216;5.624;2023-02-18T00:51:47;13.75;;;3.80;;
53875;SDS011;39789;53.216;5.624;2023-02-18T00:55:12;14.95;;;4.50;;
53875;SDS011;39789;53.216;5.624;2023-02-18T00:57:44;18.55;;;4.65;;
53875;SDS011;39789;53.216;5.624;2023-02-18T01:00:20;20.65;;;5.05;;
53875;SDS011;39789;53.216;5.624;2023-02-18T01:03:10;14.32;;;4.43;;
53875;SDS011;39789;53.216;5.624;2023-02-18T01:05:39;17.85;;;4.63;;
53875;SDS011;39789;53.216;5.624;2023-02-18T01:14:55;13.02;;;4.07;;
53875;SDS011;39789;53.216;5.624;2023-02-18T01:17:43;15.68;;;3.95;;
53875;SDS011;39789;53.216;5.624;2023-02-18T01:23:33;14.63;;;3.90;;
53875;SDS011;39789;53.216;5.624;2023-02-18T01:26:59;9.75;;;3.35;;
53875;SDS011;39789;53.216;5.624;2023-02-18T01:29:25;18.33;;;4.20;;
53875;SDS011;39789;53.216;5.624;2023-02-18T01:31:52;17.75;;;4.95;;
53875;SDS011;39789;53.216;5.624;2023-02-18T01:34:21;14.50;;;3.10;;
53875;SDS011;39789;53.216;5.624;2023-02-18T01:36:54;14.95;;;3.88;;
53875;SDS011;39789;53.216;5.624;2023-02-18T01:39:23;19.42;;;5.50;;
53875;SDS011;39789;53.216;5.624;2023-02-18T01:41:49;17.55;;;3.70;;
53875;SDS011;39789;53.216;5.624;2023-02-18T01:44:22;18.27;;;4.07;;
53875;SDS011;39789;53.216;5.624;2023-02-18T01:47:06;8.52;;;3.20;;
53875;SDS011;39789;53.216;5.624;2023-02-18T01:50:29;21.25;;;3.45;;
53875;SDS011;39789;53.216;5.624;2023-02-18T01:59:12;11.63;;;3.15;;
53875;SDS011;39789;53.216;5.624;2023-02-18T02:02:17;10.45;;;3.05;;
53875;SDS011;39789;53.216;5.624;2023-02-18T02:05:06;14.40;;;3.95;;
53875;SDS011;39789;53.216;5.624;2023-02-18T02:07:39;12.90;;;3.55;;
53875;SDS011;39789;53.216;5.624;2023-02-18T02:10:06;13.25;;;3.80;;
53875;SDS011;39789;53.216;5.624;2023-02-18T02:12:35;12.02;;;3.42;;
53875;SDS011;39789;53.216;5.624;2023-02-18T02:15:30;14.10;;;4.45;;
53875;SDS011;39789;53.216;5.624;2023-02-18T02:21:44;9.43;;;4.07;;
53875;SDS011;39789;53.216;5.624;2023-02-18T02:27:34;12.93;;;4.18;;
53875;SDS011;39789;53.216;5.624;2023-02-18T02:41:32;14.77;;;4.13;;
53875;SDS011;39789;53.216;5.624;2023-02-18T02:44:28;13.90;;;3.85;;
53875;SDS011;39789;53.216;5.624;2023-02-18T02:47:01;14.02;;;3.97;;
53875;SDS011;39789;53.216;5.624;2023-02-18T02:49:48;9.55;;;2.92;;
53875;SDS011;39789;53.216;5.624;2023-02-18T02:53:26;14.88;;;3.45;;
53875;SDS011;39789;53.216;5.624;2023-02-18T02:55:55;15.65;;;3.28;;
53875;SDS011;39789;53.216;5.624;2023-02-18T02:58:22;9.63;;;3.30;;
53875;SDS011;39789;53.216;5.624;2023-02-18T03:03:33;13.60;;;3.75;;
53875;SDS011;39789;53.216;5.624;2023-02-18T03:12:06;10.75;;;3.50;;
53875;SDS011;39789;53.216;5.624;2023-02-18T03:17:54;10.45;;;3.10;;
53875;SDS011;39789;53.216;5.624;2023-02-18T03:20:59;5.68;;;2.13;;
53875;SDS011;39789;53.216;5.624;2023-02-18T03:23:30;10.63;;;2.08;;
53875;SDS011;39789;53.216;5.624;2023-02-18T03:26:07;9.20;;;2.88;;
53875;SDS011;39789;53.216;5.624;2023-02-18T03:28:45;10.00;;;2.20;;
53875;SDS011;39789;53.216;5.624;2023-02-18T03:31:17;8.77;;;3.08;;
53875;SDS011;39789;53.216;5.624;2023-02-18T03:33:58;11.40;;;2.83;;
53875;SDS011;39789;53.216;5.624;2023-02-18T03:36:34;12.85;;;2.88;;
53875;SDS011;39789;53.216;5.624;2023-02-18T03:39:03;7.85;;;3.20;;
53875;SDS011;39789;53.216;5.624;2023-02-18T03:41:43;10.15;;;3.05;;
53875;SDS011;39789;53.216;5.624;2023-02-18T03:44:13;11.90;;;2.63;;
53875;SDS011;39789;53.216;5.624;2023-02-18T03:46:51;10.20;;;3.42;;
53875;SDS011;39789;53.216;5.624;2023-02-18T04:13:16;7.07;;;2.92;;
53875;SDS011;39789;53.216;5.624;2023-02-18T04:15:42;16.83;;;3.75;;
53875;SDS011;39789;53.216;5.624;2023-02-18T04:22:11;10.13;;;4.60;;
53875;SDS011;39789;53.216;5.624;2023-02-18T04:25:34;14.18;;;4.05;;
53875;SDS011;39789;53.216;5.624;2023-02-18T04:28:01;10.23;;;4.55;;
53875;SDS011;39789;53.216;5.624;2023-02-18T04:34:34;15.32;;;5.43;;
53875;SDS011;39789;53.216;5.624;2023-02-18T04:37:00;17.98;;;6.45;;
53875;SDS011;39789;53.216;5.624;2023-02-18T04:39:26;15.02;;;6.07;;
53875;SDS011;39789;53.216;5.624;2023-02-18T04:41:51;13.32;;;7.55;;
53875;SDS011;39789;53.216;5.624;2023-02-18T04:44:17;15.70;;;6.05;;
53875;SDS011;39789;53.216;5.624;2023-02-18T04:46:43;17.83;;;7.35;;
53875;SDS011;39789;53.216;5.624;2023-02-18T04:49:08;17.65;;;7.43;;
53875;SDS011;39789;53.216;5.624;2023-02-18T04:51:34;18.30;;;7.53;;
53875;SDS011;39789;53.216;5.624;2023-02-18T04:54:01;19.77;;;8.70;;
53875;SDS011;39789;53.216;5.624;2023-02-18T04:56:27;20.63;;;9.57;;
53875;SDS011;39789;53.216;5.624;2023-02-18T04:58:53;24.35;;;9.27;;
53875;SDS011;39789;53.216;5.624;2023-02-18T05:01:18;18.40;;;9.85;;
53875;SDS011;39789;53.216;5.624;2023-02-18T05:03:44;20.30;;;10.52;;
53875;SDS011;39789;53.216;5.624;2023-02-18T05:06:10;22.25;;;12.15;;
53875;SDS011;39789;53.216;5.624;2023-02-18T05:08:36;27.67;;;12.68;;
53875;SDS011;39789;53.216;5.624;2023-02-18T05:11:04;26.00;;;13.02;;
53875;SDS011;39789;53.216;5.624;2023-02-18T05:13:31;22.65;;;13.90;;
53875;SDS011;39789;53.216;5.624;2023-02-18T05:15:56;24.70;;;14.57;;
53875;SDS011;39789;53.216;5.624;2023-02-18T05:18:22;23.92;;;14.07;;
53875;SDS011;39789;53.216;5.624;2023-02-18T05:20:48;20.08;;;14.02;;
53875;SDS011;39789;53.216;5.624;2023-02-18T05:23:13;24.38;;;15.35;;
53875;SDS011;39789;53.216;5.624;2023-02-18T05:25:39;28.50;;;19.25;;
53875;SDS011;39789;53.216;5.624;2023-02-18T05:28:04;30.55;;;19.20;;
53875;SDS011;39789;53.216;5.624;2023-02-18T05:30:30;43.22;;;22.35;;
53875;SDS011;39789;53.216;5.624;2023-02-18T05:32:55;35.20;;;22.02;;
53875;SDS011;39789;53.216;5.624;2023-02-18T05:35:21;46.67;;;23.92;;
53875;SDS011;39789;53.216;5.624;2023-02-18T05:37:46;34.83;;;22.08;;
53875;SDS011;39789;53.216;5.624;2023-02-18T05:40:12;44.60;;;25.98;;
53875;SDS011;39789;53.216;5.624;2023-02-18T05:42:37;44.17;;;24.58;;
53875;SDS011;39789;53.216;5.624;2023-02-18T05:45:03;46.10;;;25.38;;
53875;SDS011;39789;53.216;5.624;2023-02-18T05:47:29;40.50;;;24.35;;
53875;SDS011;39789;53.216;5.624;2023-02-18T05:49:54;48.45;;;23.58;;
53875;SDS011;39789;53.216;5.624;2023-02-18T05:52:20;41.70;;;22.77;;
53875;SDS011;39789;53.216;5.624;2023-02-18T05:54:46;43.40;;;23.10;;
53875;SDS011;39789;53.216;5.624;2023-02-18T05:57:12;45.78;;;23.15;;
53875;SDS011;39789;53.216;5.624;2023-02-18T05:59:39;45.47;;;22.67;;
53875;SDS011;39789;53.216;5.624;2023-02-18T06:02:04;43.15;;;21.55;;
53875;SDS011;39789;53.216;5.624;2023-02-18T06:04:30;48.63;;;21.90;;
53875;SDS011;39789;53.216;5.624;2023-02-18T06:06:58;47.17;;;23.80;;
53875;SDS011;39789;53.216;5.624;2023-02-18T06:09:24;48.83;;;23.58;;
53875;SDS011;39789;53.216;5.624;2023-02-18T06:11:50;48.53;;;22.10;;
53875;SDS011;39789;53.216;5.624;2023-02-18T06:14:15;42.03;;;22.02;;
53875;SDS011;39789;53.216;5.624;2023-02-18T06:16:41;52.25;;;21.92;;
53875;SDS011;39789;53.216;5.624;2023-02-18T06:19:07;46.30;;;22.65;;
53875;SDS011;39789;53.216;5.624;2023-02-18T06:21:32;40.85;;;20.13;;
53875;SDS011;39789;53.216;5.624;2023-02-18T06:23:58;46.53;;;21.02;;
53875;SDS011;39789;53.216;5.624;2023-02-18T06:26:24;41.33;;;18.90;;
53875;SDS011;39789;53.216;5.624;2023-02-18T06:28:50;42.55;;;19.27;;
53875;SDS011;39789;53.216;5.624;2023-02-18T06:31:15;42.97;;;19.83;;
53875;SDS011;39789;53.216;5.624;2023-02-18T06:33:41;42.72;;;19.77;;
53875;SDS011;39789;53.216;5.624;2023-02-18T06:36:07;38.80;;;19.00;;
53875;SDS011;39789;53.216;5.624;2023-02-18T06:38:35;38.47;;;18.70;;
53875;SDS011;39789;53.216;5.624;2023-02-18T06:41:02;39.72;;;17.88;;
53875;SDS011;39789;53.216;5.624;2023-02-18T06:43:27;40.75;;;19.00;;
53875;SDS011;39789;53.216;5.624;2023-02-18T06:45:53;42.83;;;17.95;;
53875;SDS011;39789;53.216;5.624;2023-02-18T06:48:19;36.35;;;18.00;;
53875;SDS011;39789;53.216;5.624;2023-02-18T06:50:45;36.15;;;17.42;;
53875;SDS011;39789;53.216;5.624;2023-02-18T06:53:11;36.03;;;16.45;;
53875;SDS011;39789;53.216;5.624;2023-02-18T06:55:37;34.45;;;16.00;;
53875;SDS011;39789;53.216;5.624;2023-02-18T06:58:03;33.63;;;15.27;;
53875;SDS011;39789;53.216;5.624;2023-02-18T07:00:32;33.58;;;15.77;;
53875;SDS011;39789;53.216;5.624;2023-02-18T07:02:57;33.80;;;14.02;;
53875;SDS011;39789;53.216;5.624;2023-02-18T07:05:23;30.65;;;13.43;;
53875;SDS011;39789;53.216;5.624;2023-02-18T07:07:48;30.20;;;15.75;;
53875;SDS011;39789;53.216;5.624;2023-02-18T07:10:14;26.40;;;14.88;;
53875;SDS011;39789;53.216;5.624;2023-02-18T07:12:40;28.95;;;13.88;;
53875;SDS011;39789;53.216;5.624;2023-02-18T07:15:05;28.02;;;14.00;;
53875;SDS011;39789;53.216;5.624;2023-02-18T07:17:31;29.25;;;13.63;;
53875;SDS011;39789;53.216;5.624;2023-02-18T07:19:57;31.85;;;14.10;;
53875;SDS011;39789;53.216;5.624;2023-02-18T07:22:23;33.47;;;14.75;;
53875;SDS011;39789;53.216;5.624;2023-02-18T07:24:52;23.15;;;11.32;;
53875;SDS011;39789;53.216;5.624;2023-02-18T07:27:18;28.52;;;12.63;;
53875;SDS011;39789;53.216;5.624;2023-02-18T07:29:44;27.65;;;11.68;;
53875;SDS011;39789;53.216;5.624;2023-02-18T07:32:11;27.75;;;11.93;;
53875;SDS011;39789;53.216;5.624;2023-02-18T07:34:38;25.58;;;10.85;;
53875;SDS011;39789;53.216;5.624;2023-02-18T07:37:03;27.25;;;11.20;;
53875;SDS011;39789;53.216;5.624;2023-02-18T07:39:35;27.17;;;10.90;;
53875;SDS011;39789;53.216;5.624;2023-02-18T07:42:04;23.80;;;9.02;;
53875;SDS011;39789;53.216;5.624;2023-02-18T07:44:29;25.00;;;8.88;;
53875;SDS011;39789;53.216;5.624;2023-02-18T07:46:55;25.02;;;8.80;;
53875;SDS011;39789;53.216;5.624;2023-02-18T07:49:21;20.75;;;8.02;;
53875;SDS011;39789;53.216;5.624;2023-02-18T07:51:47;20.85;;;7.20;;
53875;SDS011;39789;53.216;5.624;2023-02-18T07:54:13;17.48;;;6.90;;
53875;SDS011;39789;53.216;5.624;2023-02-18T07:56:39;18.13;;;5.70;;
53875;SDS011;39789;53.216;5.624;2023-02-18T07:59:07;16.48;;;6.47;;
53875;SDS011;39789;53.216;5.624;2023-02-18T08:01:33;15.20;;;6.15;;
53875;SDS011;39789;53.216;5.624;2023-02-18T08:03:58;18.00;;;5.75;;
53875;SDS011;39789;53.216;5.624;2023-02-18T08:06:25;15.38;;;4.80;;
53875;SDS011;39789;53.216;5.624;2023-02-18T08:08:55;15.90;;;5.00;;
53875;SDS011;39789;53.216;5.624;2023-02-18T08:11:20;17.23;;;4.95;;
53875;SDS011;39789;53.216;5.624;2023-02-18T08:13:47;15.35;;;4.65;;
53875;SDS011;39789;53.216;5.624;2023-02-18T08:16:13;17.45;;;4.45;;
53875;SDS011;39789;53.216;5.624;2023-02-18T08:18:40;17.00;;;4.22;;
53875;SDS011;39789;53.216;5.624;2023-02-18T08:21:06;23.52;;;5.13;;
53875;SDS011;39789;53.216;5.624;2023-02-18T08:23:32;18.77;;;4.93;;
53875;SDS011;39789;53.216;5.624;2023-02-18T08:25:57;16.33;;;4.07;;
53875;SDS011;39789;53.216;5.624;2023-02-18T08:28:23;19.63;;;3.90;;
53875;SDS011;39789;53.216;5.624;2023-02-18T08:30:49;23.30;;;4.85;;
53875;SDS011;39789;53.216;5.624;2023-02-18T08:33:16;17.77;;;4.40;;
53875;SDS011;39789;53.216;5.624;2023-02-18T08:35:42;21.45;;;4.40;;
53875;SDS011;39789;53.216;5.624;2023-02-18T08:38:08;15.13;;;4.03;;
53875;SDS011;39789;53.216;5.624;2023-02-18T08:40:34;17.80;;;4.50;;
53875;SDS011;39789;53.216;5.624;2023-02-18T08:43:00;19.40;;;5.00;;
53875;SDS011;39789;53.216;5.624;2023-02-18T08:45:25;14.52;;;3.83;;
53875;SDS011;39789;53.216;5.624;2023-02-18T08:47:51;21.73;;;4.90;;
53875;SDS011;39789;53.216;5.624;2023-02-18T08:50:17;12.32;;;3.60;;
53875;SDS011;39789;53.216;5.624;2023-02-18T08:52:44;26.83;;;4.43;;
53875;SDS011;39789;53.216;5.624;2023-02-18T08:55:10;21.17;;;5.28;;
53875;SDS011;39789;53.216;5.624;2023-02-18T08:57:36;17.05;;;4.00;;
53875;SDS011;39789;53.216;5.624;2023-02-18T09:00:02;26.10;;;4.85;;
53875;SDS011;39789;53.216;5.624;2023-02-18T09:02:29;17.90;;;4.25;;
53875;SDS011;39789;53.216;5.624;2023-02-18T09:04:55;16.13;;;4.45;;
53875;SDS011;39789;53.216;5.624;2023-02-18T09:07:21;13.32;;;3.53;;
53875;SDS011;39789;53.216;5.624;2023-02-18T09:09:47;21.00;;;3.95;;
53875;SDS011;39789;53.216;5.624;2023-02-18T09:12:12;18.15;;;4.07;;
53875;SDS011;39789;53.216;5.624;2023-02-18T09:14:38;17.63;;;3.85;;
53875;SDS011;39789;53.216;5.624;2023-02-18T09:17:03;10.75;;;3.15;;
53875;SDS011;39789;53.216;5.624;2023-02-18T09:19:29;18.38;;;4.13;;
53875;SDS011;39789;53.216;5.624;2023-02-18T09:21:54;25.13;;;4.60;;
53875;SDS011;39789;53.216;5.624;2023-02-18T09:24:21;18.63;;;4.10;;
53875;SDS011;39789;53.216;5.624;2023-02-18T09:26:48;12.43;;;3.58;;
53875;SDS011;39789;53.216;5.624;2023-02-18T09:29:15;20.00;;;4.40;;
53875;SDS011;39789;53.216;5.624;2023-02-18T09:31:41;14.73;;;3.80;;
53875;SDS011;39789;53.216;5.624;2023-02-18T09:34:06;15.65;;;4.15;;
53875;SDS011;39789;53.216;5.624;2023-02-18T09:36:32;21.27;;;4.30;;
53875;SDS011;39789;53.216;5.624;2023-02-18T09:38:58;19.38;;;3.92;;
53875;SDS011;39789;53.216;5.624;2023-02-18T09:41:41;17.10;;;4.10;;
53875;SDS011;39789;53.216;5.624;2023-02-18T09:44:43;19.92;;;4.00;;
53875;SDS011;39789;53.216;5.624;2023-02-18T09:47:02;19.60;;;5.05;;
53875;SDS011;39789;53.216;5.624;2023-02-18T09:49:33;19.70;;;4.97;;
53875;SDS011;39789;53.216;5.624;2023-02-18T09:52:24;21.23;;;4.35;;
53875;SDS011;39789;53.216;5.624;2023-02-18T09:54:55;18.23;;;4.35;;
53875;SDS011;39789;53.216;5.624;2023-02-18T09:57:29;15.95;;;4.00;;
53875;SDS011;39789;53.216;5.624;2023-02-18T10:00:04;19.40;;;3.78;;
53875;SDS011;39789;53.216;5.624;2023-02-18T10:06:15;19.52;;;4.45;;
53875;SDS011;39789;53.216;5.624;2023-02-18T10:08:47;12.30;;;3.97;;
53875;SDS011;39789;53.216;5.624;2023-02-18T10:11:22;17.85;;;4.15;;
53875;SDS011;39789;53.216;5.624;2023-02-18T10:13:53;12.05;;;3.60;;
53875;SDS011;39789;53.216;5.624;2023-02-18T10:16:19;14.60;;;4.07;;
53875;SDS011;39789;53.216;5.624;2023-02-18T10:18:47;14.02;;;4.03;;
53875;SDS011;39789;53.216;5.624;2023-02-18T10:21:19;14.90;;;3.90;;
53875;SDS011;39789;53.216;5.624;2023-02-18T10:23:58;15.10;;;3.85;;
53875;SDS011;39789;53.216;5.624;2023-02-18T10:26:24;13.60;;;3.10;;
53875;SDS011;39789;53.216;5.624;2023-02-18T10:28:50;15.55;;;3.50;;
53875;SDS011;39789;53.216;5.624;2023-02-18T10:31:19;14.82;;;4.18;;
53875;SDS011;39789;53.216;5.624;2023-02-18T10:36:55;15.70;;;4.15;;
53875;SDS011;39789;53.216;5.624;2023-02-18T10:43:11;19.48;;;3.65;;
53875;SDS011;39789;53.216;5.624;2023-02-18T10:51:28;14.82;;;4.45;;
53875;SDS011;39789;53.216;5.624;2023-02-18T10:53:57;13.52;;;3.63;;
53875;SDS011;39789;53.216;5.624;2023-02-18T10:56:31;14.57;;;4.07;;
53875;SDS011;39789;53.216;5.624;2023-02-18T10:59:01;17.83;;;4.68;;
53875;SDS011;39789;53.216;5.624;2023-02-18T11:01:37;15.68;;;4.45;;
53875;SDS011;39789;53.216;5.624;2023-02-18T11:04:17;15.13;;;4.60;;
53875;SDS011;39789;53.216;5.624;2023-02-18T11:06:46;17.92;;;4.05;;
53875;SDS011;39789;53.216;5.624;2023-02-18T11:09:22;23.13;;;4.38;;
53875;SDS011;39789;53.216;5.624;2023-02-18T11:11:49;15.30;;;3.30;;
53875;SDS011;39789;53.216;5.624;2023-02-18T11:14:39;13.75;;;4.43;;
53875;SDS011;39789;53.216;5.624;2023-02-18T11:17:18;18.08;;;4.30;;
53875;SDS011;39789;53.216;5.624;2023-02-18T11:19:56;14.50;;;4.40;;
53875;SDS011;39789;53.216;5.624;2023-02-18T11:25:00;22.40;;;4.50;;
53875;SDS011;39789;53.216;5.624;2023-02-18T11:27:47;17.00;;;4.22;;
53875;SDS011;39789;53.216;5.624;2023-02-18T11:30:22;14.48;;;4.03;;
53875;SDS011;39789;53.216;5.624;2023-02-18T11:32:53;12.35;;;3.83;;
53875;SDS011;39789;53.216;5.624;2023-02-18T11:35:26;15.05;;;3.67;;
53875;SDS011;39789;53.216;5.624;2023-02-18T11:37:55;12.35;;;4.07;;
53875;SDS011;39789;53.216;5.624;2023-02-18T11:40:32;20.52;;;4.47;;
53875;SDS011;39789;53.216;5.624;2023-02-18T11:43:03;16.63;;;4.35;;
53875;SDS011;39789;53.216;5.624;2023-02-18T11:45:32;14.38;;;4.78;;
53875;SDS011;39789;53.216;5.624;2023-02-18T11:48:00;23.23;;;5.30;;
53875;SDS011;39789;53.216;5.624;2023-02-18T11:50:31;14.75;;;3.42;;
53875;SDS011;39789;53.216;5.624;2023-02-18T11:52:58;19.25;;;4.75;;
53875;SDS011;39789;53.216;5.624;2023-02-18T11:55:28;17.52;;;3.80;;
53875;SDS011;39789;53.216;5.624;2023-02-18T11:58:04;15.98;;;4.43;;
53875;SDS011;39789;53.216;5.624;2023-02-18T12:06:12;15.65;;;4.15;;
53875;SDS011;39789;53.216;5.624;2023-02-18T12:08:53;13.70;;;4.72;;
53875;SDS011;39789;53.216;5.624;2023-02-18T12:11:43;21.15;;;5.15;;
53875;SDS011;39789;53.216;5.624;2023-02-18T12:14:16;17.50;;;3.83;;
53875;SDS011;39789;53.216;5.624;2023-02-18T12:23:07;14.00;;;4.88;;
53875;SDS011;39789;53.216;5.624;2023-02-18T12:31:17;16.42;;;4.10;;
53875;SDS011;39789;53.216;5.624;2023-02-18T12:39:58;12.65;;;3.83;;
53875;SDS011;39789;53.216;5.624;2023-02-18T12:42:39;15.93;;;3.85;;
53875;SDS011;39789;53.216;5.624;2023-02-18T12:45:29;15.55;;;4.13;;
53875;SDS011;39789;53.216;5.624;2023-02-18T12:48:28;18.50;;;5.28;;
53875;SDS011;39789;53.216;5.624;2023-02-18T12:53:59;17.55;;;4.18;;
53875;SDS011;39789;53.216;5.624;2023-02-18T12:59:58;20.85;;;4.25;;
53875;SDS011;39789;53.216;5.624;2023-02-18T13:05:27;18.55;;;4.85;;
53875;SDS011;39789;53.216;5.624;2023-02-18T13:13:28;21.38;;;4.90;;
53875;SDS011;39789;53.216;5.624;2023-02-18T13:16:11;14.70;;;4.47;;
53875;SDS011;39789;53.216;5.624;2023-02-18T13:18:44;20.65;;;4.75;;
53875;SDS011;39789;53.216;5.624;2023-02-18T13:21:18;20.00;;;4.93;;
53875;SDS011;39789;53.216;5.624;2023-02-18T13:26:20;19.58;;;5.38;;
53875;SDS011;39789;53.216;5.624;2023-02-18T13:32:03;13.95;;;4.20;;
53875;SDS011;39789;53.216;5.624;2023-02-18T13:37:22;25.88;;;4.90;;
53875;SDS011;39789;53.216;5.624;2023-02-18T13:40:16;15.00;;;4.72;;
53875;SDS011;39789;53.216;5.624;2023-02-18T13:42:45;16.50;;;5.05;;
53875;SDS011;39789;53.216;5.624;2023-02-18T13:47:50;16.13;;;4.10;;
53875;SDS011;39789;53.216;5.624;2023-02-18T13:52:45;16.67;;;3.90;;
53875;SDS011;39789;53.216;5.624;2023-02-18T13:55:16;19.08;;;3.95;;
53875;SDS011;39789;53.216;5.624;2023-02-18T13:57:49;14.00;;;3.80;;
53875;SDS011;39789;53.216;5.624;2023-02-18T14:00:24;20.53;;;5.13;;
53875;SDS011;39789;53.216;5.624;2023-02-18T14:02:59;16.67;;;3.65;;
53875;SDS011;39789;53.216;5.624;2023-02-18T14:05:39;22.70;;;4.32;;
53875;SDS011;39789;53.216;5.624;2023-02-18T14:08:11;14.90;;;4.13;;
53875;SDS011;39789;53.216;5.624;2023-02-18T14:14:28;18.83;;;4.60;;
53875;SDS011;39789;53.216;5.624;2023-02-18T14:27:35;18.25;;;4.28;;
53875;SDS011;39789;53.216;5.624;2023-02-18T14:30:03;13.13;;;3.83;;
53875;SDS011;39789;53.216;5.624;2023-02-18T14:32:31;18.13;;;3.83;;
53875;SDS011;39789;53.216;5.624;2023-02-18T14:35:07;16.70;;;4.22;;
53875;SDS011;39789;53.216;5.624;2023-02-18T14:37:50;18.75;;;4.43;;
53875;SDS011;39789;53.216;5.624;2023-02-18T14:40:47;15.73;;;3.67;;
53875;SDS011;39789;53.216;5.624;2023-02-18T14:46:00;14.55;;;3.90;;
53875;SDS011;39789;53.216;5.624;2023-02-18T14:51:18;12.82;;;4.05;;
53875;SDS011;39789;53.216;5.624;2023-02-18T14:53:46;18.45;;;3.78;;
53875;SDS011;39789;53.216;5.624;2023-02-18T14:56:14;13.15;;;3.88;;
53875;SDS011;39789;53.216;5.624;2023-02-18T14:58:49;15.48;;;4.85;;
53875;SDS011;39789;53.216;5.624;2023-02-18T15:01:22;16.10;;;3.90;;
53875;SDS011;39789;53.216;5.624;2023-02-18T15:03:52;17.80;;;4.50;;
53875;SDS011;39789;53.216;5.624;2023-02-18T15:08:48;16.08;;;4.65;;
53875;SDS011;39789;53.216;5.624;2023-02-18T15:11:14;11.52;;;3.65;;
53875;SDS011;39789;53.216;5.624;2023-02-18T15:13:41;15.10;;;4.32;;
53875;SDS011;39789;53.216;5.624;2023-02-18T15:16:17;20.05;;;4.13;;
53875;SDS011;39789;53.216;5.624;2023-02-18T15:18:52;20.30;;;4.43;;
53875;SDS011;39789;53.216;5.624;2023-02-18T15:21:25;14.13;;;4.00;;
53875;SDS011;39789;53.216;5.624;2023-02-18T15:23:54;12.40;;;3.10;;
53875;SDS011;39789;53.216;5.624;2023-02-18T15:26:23;18.30;;;4.00;;
53875;SDS011;39789;53.216;5.624;2023-02-18T15:29:04;10.50;;;3.78;;
53875;SDS011;39789;53.216;5.624;2023-02-18T15:31:34;15.63;;;3.10;;
53875;SDS011;39789;53.216;5.624;2023-02-18T15:34:08;14.07;;;4.15;;
53875;SDS011;39789;53.216;5.624;2023-02-18T15:37:02;10.65;;;3.60;;
53875;SDS011;39789;53.216;5.624;2023-02-18T15:39:30;17.88;;;3.45;;
53875;SDS011;39789;53.216;5.624;2023-02-18T15:42:05;15.52;;;4.80;;
53875;SDS011;39789;53.216;5.624;2023-02-18T15:44:51;11.07;;;3.03;;
53875;SDS011;39789;53.216;5.624;2023-02-18T15:47:34;18.60;;;4.63;;
53875;SDS011;39789;53.216;5.624;2023-02-18T15:50:06;16.33;;;4.22;;
53875;SDS011;39789;53.216;5.624;2023-02-18T15:52:40;16.95;;;4.43;;
53875;SDS011;39789;53.216;5.624;2023-02-18T15:55:09;20.25;;;5.70;;
53875;SDS011;39789;53.216;5.624;2023-02-18T15:57:37;17.20;;;3.90;;
53875;SDS011;39789;53.216;5.624;2023-02-18T16:00:10;10.77;;;3.15;;
53875;SDS011;39789;53.216;5.624;2023-02-18T16:02:51;15.50;;;3.42;;
53875;SDS011;39789;53.216;5.624;2023-02-18T16:05:27;20.23;;;4.53;;
53875;SDS011;39789;53.216;5.624;2023-02-18T16:07:57;21.77;;;4.10;;
53875;SDS011;39789;53.216;5.624;2023-02-18T16:13:00;11.77;;;3.42;;
53875;SDS011;39789;53.216;5.624;2023-02-18T16:15:30;12.70;;;3.35;;
53875;SDS011;39789;53.216;5.624;2023-02-18T16:18:02;15.30;;;3.45;;
53875;SDS011;39789;53.216;5.624;2023-02-18T16:22:58;16.10;;;3.85;;
53875;SDS011;39789;53.216;5.624;2023-02-18T16:30:46;22.20;;;3.88;;
53875;SDS011;39789;53.216;5.624;2023-02-18T16:33:12;17.13;;;3.70;;
53875;SDS011;39789;53.216;5.624;2023-02-18T16:35:38;19.33;;;4.40;;
53875;SDS011;39789;53.216;5.624;2023-02-18T16:38:05;15.40;;;3.20;;
53875;SDS011;39789;53.216;5.624;2023-02-18T16:40:32;16.42;;;3.97;;
53875;SDS011;39789;53.216;5.624;2023-02-18T16:42:59;17.55;;;4.38;;
53875;SDS011;39789;53.216;5.624;2023-02-18T16:45:34;16.92;;;3.60;;
53875;SDS011;39789;53.216;5.624;2023-02-18T16:48:02;15.85;;;4.82;;
53875;SDS011;39789;53.216;5.624;2023-02-18T16:50:29;19.38;;;4.15;;
53875;SDS011;39789;53.216;5.624;2023-02-18T16:52:56;13.13;;;4.20;;
53875;SDS011;39789;53.216;5.624;2023-02-18T16:55:24;14.15;;;4.03;;
53875;SDS011;39789;53.216;5.624;2023-02-18T16:57:52;22.27;;;4.57;;
53875;SDS011;39789;53.216;5.624;2023-02-18T17:00:17;15.73;;;3.88;;
53875;SDS011;39789;53.216;5.624;2023-02-18T17:02:45;17.92;;;4.82;;
53875;SDS011;39789;53.216;5.624;2023-02-18T17:05:27;14.98;;;3.90;;
53875;SDS011;39789;53.216;5.624;2023-02-18T17:07:56;23.13;;;4.18;;
53875;SDS011;39789;53.216;5.624;2023-02-18T17:10:35;11.90;;;4.00;;
53875;SDS011;39789;53.216;5.624;2023-02-18T17:13:01;20.17;;;5.35;;
53875;SDS011;39789;53.216;5.624;2023-02-18T17:15:28;20.15;;;4.82;;
53875;SDS011;39789;53.216;5.624;2023-02-18T17:17:55;15.82;;;4.32;;
53875;SDS011;39789;53.216;5.624;2023-02-18T17:20:23;19.85;;;4.47;;
53875;SDS011;39789;53.216;5.624;2023-02-18T17:22:50;18.73;;;4.60;;
53875;SDS011;39789;53.216;5.624;2023-02-18T17:25:24;20.85;;;4.90;;
53875;SDS011;39789;53.216;5.624;2023-02-18T17:27:54;15.18;;;4.50;;
53875;SDS011;39789;53.216;5.624;2023-02-18T17:30:20;19.02;;;4.57;;
53875;SDS011;39789;53.216;5.624;2023-02-18T17:32:46;12.25;;;4.13;;
53875;SDS011;39789;53.216;5.624;2023-02-18T17:35:16;19.85;;;5.35;;
53875;SDS011;39789;53.216;5.624;2023-02-18T17:37:44;14.07;;;4.22;;
53875;SDS011;39789;53.216;5.624;2023-02-18T17:40:13;18.45;;;4.10;;
53875;SDS011;39789;53.216;5.624;2023-02-18T17:42:39;15.43;;;3.90;;
53875;SDS011;39789;53.216;5.624;2023-02-18T17:45:12;17.58;;;4.57;;
53875;SDS011;39789;53.216;5.624;2023-02-18T17:47:53;14.60;;;3.50;;
53875;SDS011;39789;53.216;5.624;2023-02-18T17:50:23;15.43;;;4.28;;
53875;SDS011;39789;53.216;5.624;2023-02-18T17:52:49;14.27;;;3.75;;
53875;SDS011;39789;53.216;5.624;2023-02-18T17:55:20;17.60;;;3.80;;
53875;SDS011;39789;53.216;5.624;2023-02-18T17:57:47;13.05;;;3.30;;
53875;SDS011;39789;53.216;5.624;2023-02-18T18:00:16;12.85;;;3.72;;
53875;SDS011;39789;53.216;5.624;2023-02-18T18:02:47;18.60;;;4.30;;